createdAt,value
2018-05-24T00:00:32.659Z,16.94
2018-05-24T00:01:32.347Z,16.92
2018-05-24T00:02:32.317Z,16.94
2018-05-24T00:03:32.323Z,16.95
2018-05-24T00:04:32.323Z,16.94
2018-05-24T00:05:32.339Z,16.92
2018-05-24T00:06:32.309Z,16.91
2018-05-24T00:07:32.322Z,16.91
2018-05-24T00:08:32.367Z,16.91
2018-05-24T00:09:32.322Z,16.95
2018-05-24T00:10:32.326Z,16.95
2018-05-24T00:11:32.308Z,16.92
2018-05-24T00:12:32.355Z,16.9
2018-05-24T00:13:32.362Z,16.87
2018-05-24T00:14:32.334Z,16.9
2018-05-24T00:15:32.321Z,16.88
2018-05-24T00:16:32.325Z,16.88
2018-05-24T00:17:32.346Z,16.83
2018-05-24T00:18:32.338Z,16.86
2018-05-24T00:19:32.331Z,16.87
2018-05-24T00:20:32.337Z,16.9
2018-05-24T00:21:32.345Z,16.88
2018-05-24T00:22:32.718Z,16.88
2018-05-24T00:23:32.359Z,16.84
2018-05-24T00:24:32.373Z,16.86
2018-05-24T00:25:32.332Z,16.87
2018-05-24T00:26:32.336Z,16.86
2018-05-24T00:27:32.340Z,16.86
2018-05-24T00:28:32.339Z,16.86
2018-05-24T00:29:32.342Z,16.86
2018-05-24T00:30:32.507Z,16.88
2018-05-24T00:31:32.384Z,16.87
2018-05-24T00:32:32.580Z,16.87
2018-05-24T00:33:32.355Z,16.83
2018-05-24T00:34:32.347Z,16.81
2018-05-24T00:35:32.343Z,16.77
2018-05-24T00:36:32.353Z,16.7
2018-05-24T00:37:32.363Z,16.7
2018-05-24T00:38:32.341Z,16.7
2018-05-24T00:39:32.349Z,16.67
2018-05-24T00:40:32.352Z,16.66
2018-05-24T00:41:32.372Z,16.64
2018-05-24T00:42:32.347Z,16.63
2018-05-24T00:43:32.341Z,16.64
2018-05-24T00:44:32.349Z,16.63
2018-05-24T00:45:32.399Z,16.62
2018-05-24T00:46:32.411Z,16.59
2018-05-24T00:47:32.322Z,16.56
2018-05-24T00:48:32.343Z,16.53
2018-05-24T00:49:32.342Z,16.53
2018-05-24T00:50:32.349Z,16.59
2018-05-24T00:51:32.353Z,16.57
2018-05-24T00:52:32.478Z,16.59
2018-05-24T00:53:32.413Z,16.57
2018-05-24T00:54:32.615Z,16.56
2018-05-24T00:55:32.402Z,16.54
2018-05-24T00:56:32.381Z,16.53
2018-05-24T00:57:32.364Z,16.53
2018-05-24T00:58:32.413Z,16.54
2018-05-24T00:59:32.385Z,16.54
2018-05-24T01:00:32.344Z,16.56
2018-05-24T01:01:32.373Z,16.56
2018-05-24T01:02:32.381Z,16.57
2018-05-24T01:03:32.792Z,16.56
2018-05-24T01:04:32.339Z,16.56
2018-05-24T01:05:32.351Z,16.56
2018-05-24T01:06:32.355Z,16.54
2018-05-24T01:07:32.361Z,16.56
2018-05-24T01:08:32.372Z,16.57
2018-05-24T01:09:32.613Z,16.52
2018-05-24T01:10:32.362Z,16.43
2018-05-24T01:11:32.377Z,16.42
2018-05-24T01:12:32.356Z,16.42
2018-05-24T01:13:32.945Z,16.42
2018-05-24T01:14:32.362Z,16.43
2018-05-24T01:15:32.375Z,16.46
2018-05-24T01:16:32.375Z,16.46
2018-05-24T01:17:32.391Z,16.46
2018-05-24T01:18:32.379Z,16.49
2018-05-24T01:19:32.360Z,16.52
2018-05-24T01:20:32.366Z,16.49
2018-05-24T01:21:32.359Z,16.52
2018-05-24T01:22:32.361Z,16.5
2018-05-24T01:23:32.943Z,16.49
2018-05-24T01:24:32.406Z,16.5
2018-05-24T01:25:32.382Z,16.5
2018-05-24T01:26:32.400Z,16.47
2018-05-24T01:27:32.402Z,16.46
2018-05-24T01:28:32.366Z,16.5
2018-05-24T01:29:32.449Z,16.47
2018-05-24T01:30:32.501Z,16.46
2018-05-24T01:31:32.383Z,16.46
2018-05-24T01:32:32.383Z,16.43
2018-05-24T01:33:32.390Z,16.42
2018-05-24T01:34:32.377Z,16.4
2018-05-24T01:35:32.389Z,16.42
2018-05-24T01:36:32.382Z,16.39
2018-05-24T01:37:32.486Z,16.36
2018-05-24T01:38:32.432Z,16.35
2018-05-24T01:39:32.396Z,16.33
2018-05-24T01:40:32.385Z,16.32
2018-05-24T01:41:32.497Z,16.32
2018-05-24T01:42:32.381Z,16.32
2018-05-24T01:43:32.390Z,16.29
2018-05-24T01:44:32.394Z,16.31
2018-05-24T01:45:32.384Z,16.31
2018-05-24T01:46:32.408Z,16.29
2018-05-24T01:47:32.493Z,16.29
2018-05-24T01:48:32.398Z,16.26
2018-05-24T01:49:32.431Z,16.26
2018-05-24T01:50:32.402Z,16.29
2018-05-24T01:51:32.390Z,16.29
2018-05-24T01:52:32.395Z,16.26
2018-05-24T01:53:32.393Z,16.26
2018-05-24T01:54:32.429Z,16.24
2018-05-24T01:55:32.390Z,16.24
2018-05-24T01:56:32.395Z,16.21
2018-05-24T01:57:32.418Z,16.21
2018-05-24T01:58:32.456Z,16.19
2018-05-24T01:59:32.414Z,16.18
2018-05-24T02:00:32.466Z,16.18
2018-05-24T02:01:32.429Z,16.16
2018-05-24T02:02:32.439Z,16.14
2018-05-24T02:03:32.399Z,16.15
2018-05-24T02:04:32.397Z,16.12
2018-05-24T02:05:32.460Z,16.15
2018-05-24T02:06:32.400Z,16.09
2018-05-24T02:07:32.566Z,16.05
2018-05-24T02:08:32.392Z,16.05
2018-05-24T02:09:32.418Z,16.05
2018-05-24T02:10:32.415Z,16.02
2018-05-24T02:11:32.393Z,16.02
2018-05-24T02:12:32.566Z,16.05
2018-05-24T02:13:32.398Z,16.05
2018-05-24T02:14:32.400Z,16.02
2018-05-24T02:15:32.388Z,16.04
2018-05-24T02:16:32.417Z,16.01
2018-05-24T02:17:32.403Z,15.98
2018-05-24T02:18:32.378Z,15.98
2018-05-24T02:19:32.391Z,15.97
2018-05-24T02:20:32.427Z,15.92
2018-05-24T02:21:32.401Z,15.91
2018-05-24T02:22:32.421Z,15.92
2018-05-24T02:23:32.409Z,15.91
2018-05-24T02:24:32.425Z,15.91
2018-05-24T02:25:32.431Z,15.92
2018-05-24T02:26:32.411Z,15.92
2018-05-24T02:27:32.418Z,15.91
2018-05-24T02:28:32.409Z,15.92
2018-05-24T02:29:32.394Z,15.9
2018-05-24T02:30:32.438Z,15.9
2018-05-24T02:31:32.430Z,15.88
2018-05-24T02:32:32.427Z,15.9
2018-05-24T02:33:32.401Z,15.9
2018-05-24T02:34:32.405Z,15.88
2018-05-24T02:35:32.408Z,15.85
2018-05-24T02:36:32.408Z,15.88
2018-05-24T02:37:32.437Z,15.87
2018-05-24T02:38:32.415Z,15.87
2018-05-24T02:39:32.453Z,15.85
2018-05-24T02:40:32.432Z,15.84
2018-05-24T02:41:32.425Z,15.85
2018-05-24T02:42:32.439Z,15.82
2018-05-24T02:43:32.522Z,15.82
2018-05-24T02:44:32.447Z,15.82
2018-05-24T02:45:32.456Z,15.85
2018-05-24T02:46:32.463Z,15.87
2018-05-24T02:47:32.471Z,15.87
2018-05-24T02:48:32.457Z,15.85
2018-05-24T02:49:32.480Z,15.84
2018-05-24T02:50:32.478Z,15.87
2018-05-24T02:51:32.432Z,15.85
2018-05-24T02:52:32.460Z,15.88
2018-05-24T02:53:32.427Z,15.9
2018-05-24T02:54:32.451Z,15.91
2018-05-24T02:55:32.634Z,15.9
2018-05-24T02:56:32.490Z,15.9
2018-05-24T02:57:32.472Z,15.9
2018-05-24T02:58:32.439Z,15.91
2018-05-24T02:59:32.465Z,15.9
2018-05-24T03:00:32.617Z,15.88
2018-05-24T03:01:32.448Z,15.88
2018-05-24T03:02:32.409Z,15.87
2018-05-24T03:03:32.574Z,15.87
2018-05-24T03:04:32.430Z,15.85
2018-05-24T03:05:32.434Z,15.84
2018-05-24T03:06:32.435Z,15.84
2018-05-24T03:07:32.461Z,15.85
2018-05-24T03:08:32.455Z,15.84
2018-05-24T03:09:32.427Z,15.88
2018-05-24T03:10:32.867Z,15.91
2018-05-24T03:11:32.497Z,15.91
2018-05-24T03:12:32.461Z,15.9
2018-05-24T03:13:32.453Z,15.87
2018-05-24T03:14:32.461Z,15.87
2018-05-24T03:15:32.512Z,15.85
2018-05-24T03:16:32.428Z,15.9
2018-05-24T03:17:32.449Z,15.88
2018-05-24T03:18:32.456Z,15.87
2018-05-24T03:19:32.449Z,15.9
2018-05-24T03:20:32.450Z,15.88
2018-05-24T03:21:32.467Z,15.9
2018-05-24T03:22:32.461Z,15.87
2018-05-24T03:23:32.415Z,15.88
2018-05-24T03:24:32.426Z,15.91
2018-05-24T03:25:32.456Z,15.88
2018-05-24T03:26:32.440Z,15.88
2018-05-24T03:27:32.461Z,15.9
2018-05-24T03:28:32.435Z,15.88
2018-05-24T03:29:32.434Z,15.85
2018-05-24T03:30:32.455Z,15.87
2018-05-24T03:31:32.475Z,15.9
2018-05-24T03:32:32.450Z,15.88
2018-05-24T03:33:32.481Z,15.85
2018-05-24T03:34:32.475Z,15.78
2018-05-24T03:35:32.459Z,15.77
2018-05-24T03:36:32.453Z,15.76
2018-05-24T03:37:32.485Z,15.76
2018-05-24T03:38:32.454Z,15.74
2018-05-24T03:39:32.432Z,15.74
2018-05-24T03:40:32.437Z,15.71
2018-05-24T03:41:32.456Z,15.71
2018-05-24T03:42:32.441Z,15.69
2018-05-24T03:43:32.474Z,15.64
2018-05-24T03:44:32.486Z,15.67
2018-05-24T03:45:32.484Z,15.66
2018-05-24T03:46:32.477Z,15.63
2018-05-24T03:47:32.452Z,15.62
2018-05-24T03:48:32.549Z,15.59
2018-05-24T03:49:32.476Z,15.54
2018-05-24T03:50:32.473Z,15.54
2018-05-24T03:51:32.480Z,15.49
2018-05-24T03:52:32.448Z,15.53
2018-05-24T03:53:33.070Z,15.54
2018-05-24T03:54:32.458Z,15.56
2018-05-24T03:55:32.442Z,15.57
2018-05-24T03:56:33.003Z,15.6
2018-05-24T03:57:32.551Z,15.63
2018-05-24T03:58:32.552Z,15.63
2018-05-24T03:59:32.458Z,15.63
2018-05-24T04:00:32.470Z,15.63
2018-05-24T04:01:32.460Z,15.64
2018-05-24T04:02:32.490Z,15.66
2018-05-24T04:03:32.494Z,15.66
2018-05-24T04:04:32.493Z,15.67
2018-05-24T04:05:32.479Z,15.67
2018-05-24T04:06:32.500Z,15.67
2018-05-24T04:07:32.478Z,15.67
2018-05-24T04:08:32.936Z,15.67
2018-05-24T04:09:32.478Z,15.67
2018-05-24T04:10:32.512Z,15.67
2018-05-24T04:11:32.518Z,15.67
2018-05-24T04:12:32.478Z,15.69
2018-05-24T04:13:32.485Z,15.7
2018-05-24T04:14:32.470Z,15.67
2018-05-24T04:15:32.525Z,15.69
2018-05-24T04:16:32.474Z,15.71
2018-05-24T04:17:32.485Z,15.74
2018-05-24T04:18:32.509Z,15.76
2018-05-24T04:19:32.993Z,15.76
2018-05-24T04:20:32.489Z,15.77
2018-05-24T04:21:32.495Z,15.78
2018-05-24T04:22:32.518Z,15.76
2018-05-24T04:23:32.498Z,15.78
2018-05-24T04:24:32.487Z,15.78
2018-05-24T04:25:32.508Z,15.78
2018-05-24T04:26:32.464Z,15.8
2018-05-24T04:27:32.529Z,15.81
2018-05-24T04:28:32.491Z,15.81
2018-05-24T04:29:32.507Z,15.81
2018-05-24T04:30:32.495Z,15.81
2018-05-24T04:31:32.463Z,15.84
2018-05-24T04:32:32.458Z,15.85
2018-05-24T04:33:32.506Z,15.88
2018-05-24T04:34:32.477Z,15.91
2018-05-24T04:35:32.530Z,15.91
2018-05-24T04:36:32.475Z,15.92
2018-05-24T04:37:32.477Z,15.92
2018-05-24T04:38:32.485Z,15.95
2018-05-24T04:39:32.507Z,15.97
2018-05-24T04:40:32.486Z,15.95
2018-05-24T04:41:32.473Z,15.95
2018-05-24T04:42:32.479Z,15.97
2018-05-24T04:43:32.473Z,15.94
2018-05-24T04:44:32.464Z,15.97
2018-05-24T04:45:32.713Z,15.97
2018-05-24T04:46:32.509Z,16.01
2018-05-24T04:47:32.504Z,16.01
2018-05-24T04:48:32.521Z,16.01
2018-05-24T04:49:32.483Z,16.01
2018-05-24T04:50:32.490Z,16.01
2018-05-24T04:51:32.505Z,16.02
2018-05-24T04:52:32.485Z,16.02
2018-05-24T04:53:32.490Z,16.02
2018-05-24T04:54:32.858Z,16.05
2018-05-24T04:55:32.649Z,16.04
2018-05-24T04:56:32.588Z,16.07
2018-05-24T04:57:32.558Z,16.05
2018-05-24T04:58:32.506Z,16.08
2018-05-24T04:59:32.876Z,16.08
2018-05-24T05:00:32.536Z,16.08
2018-05-24T05:01:32.562Z,16.09
2018-05-24T05:02:32.524Z,16.08
2018-05-24T05:03:32.544Z,16.07
2018-05-24T05:04:32.571Z,16.07
2018-05-24T05:05:32.541Z,16.07
2018-05-24T05:06:32.567Z,16.11
2018-05-24T05:07:32.505Z,16.08
2018-05-24T05:08:32.521Z,16.07
2018-05-24T05:09:32.497Z,16.04
2018-05-24T05:10:32.808Z,16.05
2018-05-24T05:11:32.530Z,16.05
2018-05-24T05:12:32.555Z,16.04
2018-05-24T05:13:33.137Z,16.05
2018-05-24T05:14:32.691Z,16.08
2018-05-24T05:15:32.523Z,16.08
2018-05-24T05:16:32.858Z,16.12
2018-05-24T05:17:32.598Z,16.12
2018-05-24T05:18:32.537Z,16.12
2018-05-24T05:19:32.625Z,16.14
2018-05-24T05:20:32.519Z,16.15
2018-05-24T05:21:32.535Z,16.15
2018-05-24T05:22:32.542Z,16.19
2018-05-24T05:23:32.694Z,16.18
2018-05-24T05:24:32.598Z,16.19
2018-05-24T05:25:32.525Z,16.18
2018-05-24T05:26:32.524Z,16.19
2018-05-24T05:27:33.168Z,16.21
2018-05-24T05:28:32.550Z,16.22
2018-05-24T05:29:32.558Z,16.22
2018-05-24T05:30:32.733Z,16.21
2018-05-24T05:31:32.646Z,16.25
2018-05-24T05:32:32.582Z,16.24
2018-05-24T05:33:32.523Z,16.22
2018-05-24T05:34:32.611Z,16.22
2018-05-24T05:35:32.529Z,16.22
2018-05-24T05:36:32.606Z,16.24
2018-05-24T05:37:32.834Z,16.26
2018-05-24T05:38:32.553Z,16.26
2018-05-24T05:39:32.537Z,16.24
2018-05-24T05:40:33.010Z,16.25
2018-05-24T05:41:32.574Z,16.25
2018-05-24T05:42:32.567Z,16.22
2018-05-24T05:43:32.534Z,16.18
2018-05-24T05:44:32.539Z,16.11
2018-05-24T05:45:32.542Z,16.12
2018-05-24T05:46:32.501Z,16.08
2018-05-24T05:47:32.601Z,16.08
2018-05-24T05:48:32.537Z,16.07
2018-05-24T05:49:32.536Z,16.07
2018-05-24T05:50:32.510Z,16.05
2018-05-24T05:51:32.516Z,16.05
2018-05-24T05:52:32.572Z,16.05
2018-05-24T05:53:32.540Z,16.07
2018-05-24T05:54:33.263Z,16.05
2018-05-24T05:55:33.279Z,16.05
2018-05-24T05:56:33.286Z,16.07
2018-05-24T05:57:33.286Z,16.05
2018-05-24T05:58:33.288Z,16.09
2018-05-24T05:59:33.237Z,16.12
2018-05-24T06:00:33.232Z,16.11
2018-05-24T06:01:33.507Z,16.14
2018-05-24T06:02:33.266Z,16.14
2018-05-24T06:03:33.225Z,16.16
2018-05-24T06:04:33.271Z,16.16
2018-05-24T06:05:33.283Z,16.16
2018-05-24T06:06:33.271Z,16.18
2018-05-24T06:07:33.292Z,16.19
2018-05-24T06:08:33.304Z,16.21
2018-05-24T06:09:33.398Z,16.24
2018-05-24T06:10:33.291Z,16.25
2018-05-24T06:11:33.272Z,16.22
2018-05-24T06:12:32.915Z,16.24
2018-05-24T06:13:33.311Z,16.26
2018-05-24T06:14:33.333Z,16.26
2018-05-24T06:15:33.455Z,16.25
2018-05-24T06:16:33.405Z,16.28
2018-05-24T06:17:33.256Z,16.31
2018-05-24T06:18:33.483Z,16.32
2018-05-24T06:19:33.269Z,16.32
2018-05-24T06:20:33.319Z,16.35
2018-05-24T06:21:33.558Z,16.36
2018-05-24T06:22:33.243Z,16.37
2018-05-24T06:23:33.299Z,16.39
2018-05-24T06:24:33.425Z,16.4
2018-05-24T06:25:33.318Z,16.42
2018-05-24T06:26:33.400Z,16.45
2018-05-24T06:27:33.307Z,16.45
2018-05-24T06:28:33.882Z,16.45
2018-05-24T06:29:33.300Z,16.47
2018-05-24T06:30:33.290Z,16.47
2018-05-24T06:31:33.256Z,16.5
2018-05-24T06:32:33.321Z,16.49
2018-05-24T06:33:33.451Z,16.52
2018-05-24T06:34:33.354Z,16.52
2018-05-24T06:35:33.277Z,16.5
2018-05-24T06:36:33.384Z,16.54
2018-05-24T06:37:33.405Z,16.56
2018-05-24T06:38:33.401Z,16.56
2018-05-24T06:39:33.417Z,16.57
2018-05-24T06:40:33.727Z,16.57
2018-05-24T06:41:33.331Z,16.57
2018-05-24T06:42:33.329Z,16.62
2018-05-24T06:43:33.384Z,16.6
2018-05-24T06:44:33.215Z,16.64
2018-05-24T06:45:33.290Z,16.62
2018-05-24T06:46:33.540Z,16.63
2018-05-24T06:47:33.467Z,16.67
2018-05-24T06:48:33.347Z,16.66
2018-05-24T06:49:33.229Z,16.68
2018-05-24T06:50:33.288Z,16.68
2018-05-24T06:51:33.300Z,16.68
2018-05-24T06:52:33.311Z,16.68
2018-05-24T06:53:33.590Z,16.7
2018-05-24T06:54:32.576Z,16.73
2018-05-24T06:55:32.669Z,16.73
2018-05-24T06:56:32.553Z,16.75
2018-05-24T06:57:32.555Z,16.75
2018-05-24T06:58:32.626Z,16.73
2018-05-24T06:59:32.560Z,16.75
2018-05-24T07:00:32.563Z,16.77
2018-05-24T07:01:32.579Z,16.78
2018-05-24T07:02:32.559Z,16.8
2018-05-24T07:03:32.594Z,16.86
2018-05-24T07:04:32.556Z,16.84
2018-05-24T07:05:32.569Z,16.86
2018-05-24T07:06:32.550Z,16.88
2018-05-24T07:07:32.559Z,16.87
2018-05-24T07:08:32.582Z,16.88
2018-05-24T07:09:32.562Z,16.9
2018-05-24T07:10:32.591Z,16.9
2018-05-24T07:11:32.560Z,16.9
2018-05-24T07:12:32.578Z,16.92
2018-05-24T07:13:32.566Z,16.92
2018-05-24T07:14:32.562Z,16.92
2018-05-24T07:15:32.656Z,16.94
2018-05-24T07:16:32.568Z,16.95
2018-05-24T07:17:32.559Z,16.97
2018-05-24T07:18:32.664Z,16.97
2018-05-24T07:19:32.566Z,16.97
2018-05-24T07:20:32.567Z,16.99
2018-05-24T07:21:32.567Z,16.99
2018-05-24T07:22:32.560Z,17.02
2018-05-24T07:23:32.569Z,17.01
2018-05-24T07:24:32.680Z,17.02
2018-05-24T07:25:32.566Z,17.04
2018-05-24T07:26:32.582Z,17.05
2018-05-24T07:27:32.562Z,17.04
2018-05-24T07:28:32.567Z,17.05
2018-05-24T07:29:32.562Z,17.08
2018-05-24T07:30:32.578Z,17.08
2018-05-24T07:31:32.572Z,17.08
2018-05-24T07:32:32.621Z,17.12
2018-05-24T07:33:32.567Z,17.11
2018-05-24T07:34:32.564Z,17.11
2018-05-24T07:35:32.561Z,17.14
2018-05-24T07:36:32.578Z,17.14
2018-05-24T07:37:32.583Z,17.16
2018-05-24T07:38:32.570Z,17.19
2018-05-24T07:39:32.592Z,17.18
2018-05-24T07:40:32.573Z,17.19
2018-05-24T07:41:32.585Z,17.19
2018-05-24T07:42:32.587Z,17.22
2018-05-24T07:43:33.628Z,17.22
2018-05-24T07:44:32.588Z,17.23
2018-05-24T07:45:32.603Z,17.26
2018-05-24T07:46:32.580Z,17.26
2018-05-24T07:47:32.632Z,17.32
2018-05-24T07:48:32.638Z,17.32
2018-05-24T07:49:32.713Z,17.35
2018-05-24T07:50:32.619Z,17.33
2018-05-24T07:51:32.585Z,17.35
2018-05-24T07:52:32.723Z,17.39
2018-05-24T07:53:32.750Z,17.37
2018-05-24T07:54:33.360Z,17.42
2018-05-24T07:55:33.474Z,17.42
2018-05-24T07:56:33.328Z,17.43
2018-05-24T07:57:33.310Z,17.46
2018-05-24T07:58:33.347Z,17.46
2018-05-24T07:59:33.353Z,17.47
2018-05-24T08:00:33.299Z,17.5
2018-05-24T08:01:33.487Z,17.49
2018-05-24T08:02:33.359Z,17.47
2018-05-24T08:03:33.638Z,17.52
2018-05-24T08:04:33.424Z,17.54
2018-05-24T08:05:33.320Z,17.58
2018-05-24T08:06:33.249Z,17.6
2018-05-24T08:07:33.248Z,17.6
2018-05-24T08:08:33.579Z,17.63
2018-05-24T08:09:33.316Z,17.63
2018-05-24T08:10:33.336Z,17.67
2018-05-24T08:11:33.377Z,17.69
2018-05-24T08:12:33.407Z,17.77
2018-05-24T08:13:33.363Z,17.77
2018-05-24T08:14:33.377Z,17.8
2018-05-24T08:15:33.330Z,17.81
2018-05-24T08:16:33.325Z,17.81
2018-05-24T08:17:33.325Z,17.84
2018-05-24T08:18:33.352Z,17.78
2018-05-24T08:19:33.490Z,17.81
2018-05-24T08:20:33.377Z,17.78
2018-05-24T08:21:33.371Z,17.77
2018-05-24T08:22:33.554Z,17.8
2018-05-24T08:23:33.346Z,17.81
2018-05-24T08:24:33.360Z,17.84
2018-05-24T08:25:33.418Z,17.85
2018-05-24T08:26:33.561Z,17.87
2018-05-24T08:27:33.370Z,17.87
2018-05-24T08:28:33.389Z,17.92
2018-05-24T08:29:33.430Z,17.92
2018-05-24T08:30:33.349Z,17.97
2018-05-24T08:31:33.374Z,17.98
2018-05-24T08:32:33.728Z,18.01
2018-05-24T08:33:33.360Z,18.01
2018-05-24T08:34:33.346Z,17.98
2018-05-24T08:35:33.354Z,18.02
2018-05-24T08:36:33.361Z,18.02
2018-05-24T08:37:33.332Z,18.05
2018-05-24T08:38:33.358Z,18.08
2018-05-24T08:39:33.311Z,18.13
2018-05-24T08:40:33.602Z,18.17
2018-05-24T08:41:33.307Z,18.25
2018-05-24T08:42:33.341Z,18.32
2018-05-24T08:43:33.411Z,18.36
2018-05-24T08:44:33.361Z,18.42
2018-05-24T08:45:33.437Z,18.44
2018-05-24T08:46:33.443Z,18.49
2018-05-24T08:47:33.428Z,18.54
2018-05-24T08:48:33.465Z,18.64
2018-05-24T08:49:33.346Z,18.7
2018-05-24T08:50:33.359Z,18.75
2018-05-24T08:51:33.398Z,18.84
2018-05-24T08:52:33.323Z,18.87
2018-05-24T08:53:33.376Z,18.92
2018-05-24T08:54:32.611Z,18.98
2018-05-24T08:55:32.657Z,19.05
2018-05-24T08:56:32.647Z,19.1
2018-05-24T08:57:32.599Z,19.13
2018-05-24T08:58:32.695Z,19.15
2018-05-24T08:59:32.627Z,19.09
2018-05-24T09:00:32.618Z,19.06
2018-05-24T09:01:33.084Z,19.02
2018-05-24T09:02:32.660Z,19.02
2018-05-24T09:03:32.642Z,18.88
2018-05-24T09:04:32.668Z,18.97
2018-05-24T09:05:32.698Z,19.05
2018-05-24T09:06:32.635Z,19.16
2018-05-24T09:07:32.643Z,19.17
2018-05-24T09:08:32.644Z,19.22
2018-05-24T09:09:32.664Z,19.27
2018-05-24T09:10:32.662Z,19.34
2018-05-24T09:11:32.984Z,19.42
2018-05-24T09:12:32.642Z,19.44
2018-05-24T09:13:32.610Z,19.34
2018-05-24T09:14:32.701Z,19.23
2018-05-24T09:15:33.003Z,19.25
2018-05-24T09:16:32.643Z,19.32
2018-05-24T09:17:32.647Z,19.34
2018-05-24T09:18:32.633Z,19.42
2018-05-24T09:19:32.723Z,19.36
2018-05-24T09:20:32.827Z,19.34
2018-05-24T09:21:32.803Z,19.4
2018-05-24T09:22:32.659Z,19.46
2018-05-24T09:23:32.651Z,19.51
2018-05-24T09:24:32.730Z,19.56
2018-05-24T09:25:32.636Z,19.58
2018-05-24T09:26:32.616Z,19.64
2018-05-24T09:27:32.620Z,19.68
2018-05-24T09:28:32.655Z,19.74
2018-05-24T09:29:32.714Z,19.78
2018-05-24T09:30:32.662Z,19.81
2018-05-24T09:31:32.652Z,19.85
2018-05-24T09:32:32.632Z,19.85
2018-05-24T09:33:32.638Z,19.88
2018-05-24T09:34:32.671Z,19.88
2018-05-24T09:35:32.659Z,19.89
2018-05-24T09:36:32.653Z,19.86
2018-05-24T09:37:32.660Z,19.91
2018-05-24T09:38:32.720Z,19.91
2018-05-24T09:39:32.647Z,19.86
2018-05-24T09:40:32.654Z,19.84
2018-05-24T09:41:32.994Z,19.84
2018-05-24T09:42:32.768Z,19.82
2018-05-24T09:43:32.680Z,19.81
2018-05-24T09:44:32.638Z,19.79
2018-05-24T09:45:32.646Z,19.81
2018-05-24T09:46:32.660Z,19.71
2018-05-24T09:47:32.647Z,19.71
2018-05-24T09:48:32.665Z,19.67
2018-05-24T09:49:32.645Z,19.61
2018-05-24T09:50:32.656Z,19.6
2018-05-24T09:51:32.686Z,19.61
2018-05-24T09:52:32.652Z,19.64
2018-05-24T09:53:32.662Z,19.68
2018-05-24T09:54:32.664Z,19.68
2018-05-24T09:55:32.868Z,19.7
2018-05-24T09:56:32.679Z,19.72
2018-05-24T09:57:32.755Z,19.78
2018-05-24T09:58:32.694Z,19.82
2018-05-24T09:59:32.637Z,19.82
2018-05-24T10:00:32.642Z,19.86
2018-05-24T10:01:32.656Z,19.86
2018-05-24T10:02:32.646Z,19.86
2018-05-24T10:03:32.642Z,19.85
2018-05-24T10:04:32.865Z,19.84
2018-05-24T10:05:32.681Z,19.91
2018-05-24T10:06:32.657Z,19.96
2018-05-24T10:07:32.663Z,19.99
2018-05-24T10:08:33.466Z,20.04
2018-05-24T10:09:32.650Z,20.06
2018-05-24T10:10:33.008Z,20.09
2018-05-24T10:11:32.898Z,20.16
2018-05-24T10:12:32.715Z,20.13
2018-05-24T10:13:32.741Z,20.17
2018-05-24T10:14:32.689Z,20.16
2018-05-24T10:15:32.676Z,20.19
2018-05-24T10:16:33.178Z,20.19
2018-05-24T10:17:32.666Z,20.22
2018-05-24T10:18:32.703Z,20.26
2018-05-24T10:19:32.648Z,20.29
2018-05-24T10:20:32.651Z,20.3
2018-05-24T10:21:32.661Z,20.12
2018-05-24T10:22:32.685Z,20.11
2018-05-24T10:23:33.013Z,20.15
2018-05-24T10:24:32.731Z,20.06
2018-05-24T10:25:32.687Z,20.04
2018-05-24T10:26:32.689Z,20.06
2018-05-24T10:27:32.669Z,20.13
2018-05-24T10:28:33.568Z,20.16
2018-05-24T10:29:32.721Z,20.24
2018-05-24T10:30:32.766Z,20.29
2018-05-24T10:31:32.691Z,20.32
2018-05-24T10:32:32.696Z,20.32
2018-05-24T10:33:32.689Z,20.34
2018-05-24T10:34:32.749Z,20.37
2018-05-24T10:35:32.724Z,20.4
2018-05-24T10:36:32.692Z,20.36
2018-05-24T10:37:34.941Z,20.39
2018-05-24T10:38:32.781Z,20.4
2018-05-24T10:39:32.854Z,20.47
2018-05-24T10:40:34.886Z,20.6
2018-05-24T10:41:32.692Z,20.64
2018-05-24T10:42:32.676Z,20.68
2018-05-24T10:43:35.285Z,20.75
2018-05-24T10:44:32.717Z,20.82
2018-05-24T10:45:32.682Z,20.87
2018-05-24T10:46:32.698Z,20.92
2018-05-24T10:47:32.710Z,20.95
2018-05-24T10:48:32.700Z,20.98
2018-05-24T10:49:32.687Z,20.81
2018-05-24T10:50:32.726Z,20.82
2018-05-24T10:51:32.761Z,20.92
2018-05-24T10:52:32.691Z,20.95
2018-05-24T10:53:32.842Z,20.78
2018-05-24T10:54:32.736Z,20.82
2018-05-24T10:55:32.688Z,20.94
2018-05-24T10:56:32.761Z,21.05
2018-05-24T10:57:32.792Z,21.12
2018-05-24T10:58:32.891Z,21.23
2018-05-24T10:59:33.219Z,21.32
2018-05-24T11:00:32.689Z,21.36
2018-05-24T11:01:32.694Z,21.37
2018-05-24T11:02:32.698Z,21.4
2018-05-24T11:03:32.815Z,21.46
2018-05-24T11:04:32.685Z,21.49
2018-05-24T11:05:32.705Z,21.53
2018-05-24T11:06:32.856Z,21.56
2018-05-24T11:07:32.786Z,21.56
2018-05-24T11:08:32.687Z,21.64
2018-05-24T11:09:32.851Z,21.68
2018-05-24T11:10:32.865Z,21.61
2018-05-24T11:11:32.856Z,21.67
2018-05-24T11:12:32.781Z,21.69
2018-05-24T11:13:32.708Z,21.71
2018-05-24T11:14:32.709Z,21.72
2018-05-24T11:15:32.895Z,21.78
2018-05-24T11:16:32.793Z,21.75
2018-05-24T11:17:32.709Z,21.82
2018-05-24T11:18:32.809Z,21.85
2018-05-24T11:19:32.822Z,21.88
2018-05-24T11:20:32.931Z,21.92
2018-05-24T11:21:32.834Z,22.02
2018-05-24T11:22:32.846Z,21.88
2018-05-24T11:23:32.844Z,21.82
2018-05-24T11:24:32.710Z,21.96
2018-05-24T11:25:32.780Z,22.13
2018-05-24T11:26:32.741Z,22.15
2018-05-24T11:27:32.742Z,22.24
2018-05-24T11:28:32.733Z,22.26
2018-05-24T11:29:32.900Z,21.95
2018-05-24T11:30:32.734Z,21.84
2018-05-24T11:31:32.810Z,21.96
2018-05-24T11:32:32.780Z,22.06
2018-05-24T11:33:32.821Z,22.15
2018-05-24T11:34:32.923Z,22.24
2018-05-24T11:35:32.838Z,22.27
2018-05-24T11:36:32.852Z,22.26
2018-05-24T11:37:32.859Z,22.27
2018-05-24T11:38:32.956Z,22.34
2018-05-24T11:39:32.766Z,22.39
2018-05-24T11:40:32.767Z,22.41
2018-05-24T11:41:32.868Z,22.4
2018-05-24T11:42:32.893Z,22.41
2018-05-24T11:43:32.889Z,22.46
2018-05-24T11:44:32.898Z,22.47
2018-05-24T11:45:32.899Z,22.48
2018-05-24T11:46:32.772Z,22.46
2018-05-24T11:47:32.796Z,22.46
2018-05-24T11:48:32.740Z,22.48
2018-05-24T11:49:32.719Z,22.53
2018-05-24T11:50:32.744Z,22.51
2018-05-24T11:51:32.828Z,22.53
2018-05-24T11:52:32.730Z,22.53
2018-05-24T11:53:32.853Z,22.56
2018-05-24T11:54:32.746Z,22.53
2018-05-24T11:55:32.866Z,22.51
2018-05-24T11:56:32.876Z,22.5
2018-05-24T11:57:32.744Z,22.47
2018-05-24T11:58:32.739Z,22.47
2018-05-24T11:59:32.900Z,22.48
2018-05-24T12:00:32.825Z,22.43
2018-05-24T12:01:32.741Z,22.44
2018-05-24T12:02:32.720Z,22.44
2018-05-24T12:03:32.790Z,22.44
2018-05-24T12:04:32.759Z,22.41
2018-05-24T12:05:32.843Z,22.41
2018-05-24T12:06:32.734Z,22.46
2018-05-24T12:07:32.730Z,22.48
2018-05-24T12:08:32.729Z,22.5
2018-05-24T12:09:32.765Z,22.5
2018-05-24T12:10:32.734Z,22.51
2018-05-24T12:11:32.876Z,22.53
2018-05-24T12:12:32.749Z,22.5
2018-05-24T12:13:32.754Z,22.54
2018-05-24T12:14:32.757Z,22.51
2018-05-24T12:15:32.735Z,22.56
2018-05-24T12:16:32.741Z,22.56
2018-05-24T12:17:32.820Z,22.58
2018-05-24T12:18:32.764Z,22.53
2018-05-24T12:19:32.769Z,22.48
2018-05-24T12:20:32.763Z,22.31
2018-05-24T12:21:32.765Z,22.26
2018-05-24T12:22:32.745Z,22.29
2018-05-24T12:23:32.883Z,22.33
2018-05-24T12:24:32.760Z,22.36
2018-05-24T12:25:32.872Z,22.37
2018-05-24T12:26:32.796Z,22.46
2018-05-24T12:27:32.946Z,22.43
2018-05-24T12:28:32.798Z,22.48
2018-05-24T12:29:32.776Z,22.54
2018-05-24T12:30:32.768Z,22.61
2018-05-24T12:31:32.753Z,22.68
2018-05-24T12:32:32.928Z,22.71
2018-05-24T12:33:32.773Z,22.76
2018-05-24T12:34:32.767Z,22.79
2018-05-24T12:35:33.419Z,22.82
2018-05-24T12:36:32.911Z,22.85
2018-05-24T12:37:32.830Z,22.88
2018-05-24T12:38:32.972Z,22.86
2018-05-24T12:39:32.752Z,22.91
2018-05-24T12:40:32.764Z,22.88
2018-05-24T12:41:33.296Z,22.94
2018-05-24T12:42:32.807Z,22.94
2018-05-24T12:43:32.750Z,22.95
2018-05-24T12:44:32.932Z,22.95
2018-05-24T12:45:32.806Z,22.95
2018-05-24T12:46:32.833Z,22.99
2018-05-24T12:47:32.764Z,23.01
2018-05-24T12:48:32.795Z,23.03
2018-05-24T12:49:33.048Z,23.02
2018-05-24T12:50:32.835Z,22.86
2018-05-24T12:51:32.815Z,22.86
2018-05-24T12:52:32.915Z,22.89
2018-05-24T12:53:33.889Z,22.79
2018-05-24T12:54:32.777Z,22.81